Time;durP1;ratioP1;P1;durP2;ratioP2;P2;SDS_P1;SDS_P2;PMS_P1;PMS_P2;Temp;Humidity;BMP_temperature;BMP_pressure;BME280_temperature;BME280_humidity;BME280_pressure;Samples;Min_cycle;Max_cycle;Signal;HPM_P1;HPM_P2
2021/12/09 00:00:59;;;;;;;38.23;23.10;;;21.30;56.30;;;;;;5112969;27;20062;-43
2021/12/09 00:03:27;;;;;;;42.08;24.73;;;21.20;56.30;;;;;;5147125;27;20391;-46
2021/12/09 00:05:56;;;;;;;44.65;25.42;;;21.20;56.40;;;;;;5165352;27;20511;-47
2021/12/09 00:08:28;;;;;;;48.05;25.77;;;21.20;56.40;;;;;;5150998;27;20023;-44
2021/12/09 00:10:55;;;;;;;45.78;26.48;;;21.30;56.40;;;;;;5165531;27;20030;-46
2021/12/09 00:13:22;;;;;;;46.58;25.75;;;21.30;56.30;;;;;;5167199;27;20062;-50
2021/12/09 00:15:49;;;;;;;42.88;25.95;;;21.30;56.10;;;;;;5167091;27;20027;-46
2021/12/09 00:18:15;;;;;;;51.63;27.52;;;21.20;56.10;;;;;;5166910;27;20066;-47
2021/12/09 00:20:41;;;;;;;47.92;26.55;;;21.20;56.20;;;;;;5157625;27;20086;-47
2021/12/09 00:23:08;;;;;;;49.45;26.95;;;21.10;56.20;;;;;;5162469;27;20031;-46
2021/12/09 00:25:35;;;;;;;44.35;25.45;;;21.10;56.30;;;;;;5153955;27;20019;-47
2021/12/09 00:28:02;;;;;;;40.13;23.77;;;21.10;56.30;;;;;;5159299;27;20037;-47
2021/12/09 00:30:30;;;;;;;38.65;21.10;;;21.20;56.30;;;;;;5163401;27;20060;-46
2021/12/09 00:32:57;;;;;;;37.05;21.55;;;21.30;56.30;;;;;;5159627;27;20061;-44
2021/12/09 00:35:29;;;;;;;35.63;21.42;;;21.20;56.00;;;;;;5166168;27;20466;-44
2021/12/09 00:38:01;;;;;;;38.50;21.13;;;21.20;56.00;;;;;;5164805;27;20039;-45
2021/12/09 00:40:27;;;;;;;39.97;21.40;;;21.20;56.10;;;;;;5166808;27;20736;-46
2021/12/09 00:42:53;;;;;;;35.75;20.85;;;21.10;56.10;;;;;;5163400;27;20035;-47
2021/12/09 00:45:21;;;;;;;32.22;18.52;;;21.00;56.10;;;;;;5169201;27;20033;-45
2021/12/09 00:47:47;;;;;;;35.15;17.90;;;21.10;56.20;;;;;;5166218;27;20056;-46
2021/12/09 00:50:13;;;;;;;28.00;16.83;;;21.20;56.20;;;;;;5155553;27;20056;-45
2021/12/09 00:52:39;;;;;;;26.73;16.80;;;21.20;56.20;;;;;;5152814;27;20041;-45
2021/12/09 00:55:06;;;;;;;24.23;14.77;;;21.20;56.00;;;;;;5160547;27;20027;-46
2021/12/09 00:57:32;;;;;;;27.73;16.35;;;21.20;56.10;;;;;;5154544;27;20027;-47
2021/12/09 00:59:59;;;;;;;26.90;15.75;;;21.10;56.10;;;;;;5139569;27;20049;-45
2021/12/09 01:02:25;;;;;;;25.03;15.53;;;21.10;56.20;;;;;;5059059;28;20797;-45
2021/12/09 01:04:51;;;;;;;23.93;13.70;;;21.00;56.20;;;;;;5049645;28;20025;-46
2021/12/09 01:07:17;;;;;;;24.33;13.48;;;21.00;56.30;;;;;;5055963;28;20100;-47
2021/12/09 01:09:44;;;;;;;21.77;13.15;;;21.10;56.40;;;;;;5059664;28;20103;-44
2021/12/09 01:12:10;;;;;;;20.98;12.32;;;21.20;56.40;;;;;;5060753;28;20063;-44
2021/12/09 01:14:37;;;;;;;20.75;12.43;;;21.20;56.20;;;;;;5047837;28;20033;-47
2021/12/09 01:17:05;;;;;;;19.52;11.27;;;21.10;56.10;;;;;;5051916;28;20040;-48
2021/12/09 01:19:31;;;;;;;21.55;12.23;;;21.00;56.10;;;;;;5050262;27;20033;-47
2021/12/09 01:21:57;;;;;;;15.95;10.57;;;21.00;56.20;;;;;;5050271;28;20029;-45
2021/12/09 01:24:24;;;;;;;17.88;10.05;;;21.00;56.30;;;;;;5051993;28;20029;-45
2021/12/09 01:26:50;;;;;;;13.52;8.90;;;21.10;56.30;;;;;;5059978;28;20047;-45
2021/12/09 01:29:21;;;;;;;14.68;9.27;;;21.20;56.20;;;;;;5055002;28;20043;-48
2021/12/09 01:31:59;;;;;;;15.32;8.88;;;21.20;56.10;;;;;;5060678;28;20049;-46
2021/12/09 01:34:25;;;;;;;16.45;9.15;;;21.10;56.00;;;;;;5060433;28;20024;-45
2021/12/09 01:36:51;;;;;;;15.98;9.05;;;21.10;56.10;;;;;;5060579;28;20029;-47
2021/12/09 01:39:18;;;;;;;13.57;8.63;;;21.00;56.20;;;;;;5052120;28;20036;-46
2021/12/09 01:41:44;;;;;;;15.15;8.18;;;20.90;56.20;;;;;;5053437;28;20063;-45
2021/12/09 01:44:11;;;;;;;12.13;7.60;;;21.00;56.30;;;;;;5050387;28;20696;-48
2021/12/09 01:46:37;;;;;;;12.32;7.28;;;21.10;56.30;;;;;;5060136;28;20033;-47
2021/12/09 01:49:03;;;;;;;11.52;6.82;;;21.10;56.20;;;;;;5059447;27;20033;-46
2021/12/09 01:51:29;;;;;;;12.05;7.05;;;21.10;56.10;;;;;;5058503;28;20048;-45
2021/12/09 01:53:55;;;;;;;9.55;6.53;;;21.10;56.00;;;;;;5054644;28;20136;-45
2021/12/09 01:56:23;;;;;;;11.80;6.72;;;21.00;56.10;;;;;;5060187;28;20111;-45
2021/12/09 01:58:51;;;;;;;10.50;6.30;;;20.90;56.10;;;;;;5053160;28;20054;-45
2021/12/09 02:01:17;;;;;;;9.25;6.00;;;21.00;56.20;;;;;;5059447;27;20049;-47
2021/12/09 02:03:43;;;;;;;8.70;5.43;;;21.10;56.20;;;;;;5060206;27;20120;-46
2021/12/09 02:06:10;;;;;;;10.05;5.68;;;21.10;56.20;;;;;;5060210;28;20054;-45
2021/12/09 02:08:36;;;;;;;10.00;5.88;;;21.10;56.00;;;;;;5057395;28;20058;-46
2021/12/09 02:11:02;;;;;;;9.93;6.10;;;21.10;55.90;;;;;;5059302;28;20080;-47
2021/12/09 02:13:28;;;;;;;9.02;5.95;;;21.00;55.90;;;;;;5060311;28;20090;-45
2021/12/09 02:15:55;;;;;;;8.75;5.50;;;21.00;56.00;;;;;;5052527;28;20043;-45
2021/12/09 02:18:22;;;;;;;;;;;20.90;56.10;;;;;;5045468;28;20491;-48
2021/12/09 02:21:05;;;;;;;7.57;4.80;;;21.00;56.10;;;;;;5044313;27;20301;-47
2021/12/09 02:23:31;;;;;;;8.30;5.10;;;21.10;56.00;;;;;;5056802;28;20085;-47
2021/12/09 02:25:57;;;;;;;9.23;5.25;;;21.10;56.00;;;;;;5047344;28;20026;-45
2021/12/09 02:28:24;;;;;;;6.82;4.68;;;21.10;55.80;;;;;;5058710;27;20020;-47
2021/12/09 02:30:50;;;;;;;7.70;4.90;;;21.10;55.80;;;;;;5127159;27;20032;-46
2021/12/09 02:33:16;;;;;;;8.05;4.60;;;21.00;55.80;;;;;;5050191;28;20037;-45
2021/12/09 02:35:43;;;;;;;7.35;4.97;;;20.90;55.90;;;;;;5061285;27;20080;-46
2021/12/09 02:38:09;;;;;;;7.43;4.63;;;21.00;56.00;;;;;;5059519;28;20032;-44
2021/12/09 02:40:35;;;;;;;7.40;4.45;;;21.10;55.90;;;;;;5054311;28;20029;-45
2021/12/09 02:43:03;;;;;;;8.70;4.70;;;21.10;55.90;;;;;;5059738;27;20813;-46
2021/12/09 02:45:29;;;;;;;7.55;5.07;;;21.10;55.70;;;;;;5047915;27;20030;-45
2021/12/09 02:47:55;;;;;;;9.38;4.60;;;21.00;55.60;;;;;;5039629;28;20022;-45
2021/12/09 02:50:21;;;;;;;8.70;5.35;;;20.90;55.70;;;;;;5050865;27;20021;-48
2021/12/09 02:52:50;;;;;;;7.65;4.90;;;20.90;55.80;;;;;;5059354;28;20041;-45
2021/12/09 02:55:17;;;;;;;7.40;4.63;;;20.90;55.90;;;;;;5059371;27;20040;-46
2021/12/09 02:57:43;;;;;;;5.93;4.35;;;21.00;55.90;;;;;;5058173;27;20036;-47
2021/12/09 03:00:10;;;;;;;8.02;4.53;;;21.10;55.90;;;;;;5059016;27;20037;-45
2021/12/09 03:02:36;;;;;;;6.65;4.45;;;21.10;55.80;;;;;;5051935;27;20061;-46
2021/12/09 03:05:03;;;;;;;7.80;4.65;;;21.10;55.60;;;;;;5040238;28;20034;-45
2021/12/09 03:07:32;;;;;;;;;;;21.00;55.60;;;;;;5050859;28;20037;-44
2021/12/09 03:10:01;;;;;;;6.00;3.67;;;20.90;55.60;;;;;;5056884;28;19909;-45
2021/12/09 03:12:32;;;;;;;7.80;4.15;;;20.90;55.70;;;;;;5052583;28;20037;-45
2021/12/09 03:14:58;;;;;;;8.45;4.40;;;21.00;55.80;;;;;;5041736;28;20040;-47
2021/12/09 03:17:25;;;;;;;7.97;5.05;;;21.00;55.70;;;;;;5039354;28;20030;-45
2021/12/09 03:19:51;;;;;;;7.80;4.47;;;21.10;55.70;;;;;;5039431;28;20060;-48
2021/12/09 03:22:17;;;;;;;10.40;4.63;;;21.10;55.50;;;;;;5038907;28;20694;-45
2021/12/09 03:24:44;;;;;;;6.77;4.13;;;21.00;55.40;;;;;;5052392;28;20029;-46
2021/12/09 03:27:10;;;;;;;6.38;4.35;;;20.90;55.50;;;;;;5059052;28;20021;-47
2021/12/09 03:29:36;;;;;;;7.72;4.35;;;20.90;56.10;;;;;;5058736;28;20044;-44
2021/12/09 03:32:08;;;;;;;7.82;4.40;;;20.90;55.70;;;;;;5057192;28;20109;-45
2021/12/09 03:34:34;;;;;;;6.90;3.67;;;21.00;55.60;;;;;;5058794;27;20032;-45
2021/12/09 03:37:03;;;;;;;7.00;4.32;;;21.10;55.60;;;;;;5059075;28;20021;-44
2021/12/09 03:39:37;;;;;;;6.40;3.97;;;21.10;55.40;;;;;;5058820;27;20066;-44
2021/12/09 03:42:03;;;;;;;6.57;4.03;;;21.00;55.20;;;;;;5046730;28;20553;-45
2021/12/09 03:44:30;;;;;;;6.15;3.88;;;20.90;55.20;;;;;;5042500;28;20051;-45
2021/12/09 03:46:58;;;;;;;5.75;3.45;;;21.00;55.40;;;;;;5042277;28;20048;-44
2021/12/09 03:49:24;;;;;;;3.97;3.22;;;21.10;55.30;;;;;;5045301;28;20811;-47
2021/12/09 03:51:52;;;;;;;5.28;3.33;;;21.10;55.30;;;;;;5062245;27;20041;-46
2021/12/09 03:54:18;;;;;;;;;;;21.10;55.20;;;;;;5061443;28;20037;-45
2021/12/09 03:56:44;;;;;;;5.93;2.90;;;21.10;55.00;;;;;;5056890;28;19920;-47
2021/12/09 03:59:10;;;;;;;4.88;3.00;;;21.00;55.00;;;;;;5061506;28;20050;-44
2021/12/09 04:01:37;;;;;;;4.47;2.67;;;21.00;55.20;;;;;;5158851;27;20578;-45
2021/12/09 04:04:04;;;;;;;3.67;2.60;;;21.10;55.20;;;;;;5167132;27;20181;-45
2021/12/09 04:06:30;;;;;;;2.70;2.10;;;21.10;55.20;;;;;;5167504;27;20033;-45
2021/12/09 04:08:57;;;;;;;3.85;2.42;;;21.20;55.10;;;;;;5161490;27;20535;-44
2021/12/09 04:11:23;;;;;;;3.50;2.40;;;21.20;54.90;;;;;;5167151;27;20035;-45
2021/12/09 04:13:50;;;;;;;3.58;2.40;;;21.10;54.80;;;;;;5167350;27;20151;-44
2021/12/09 04:16:16;;;;;;;3.03;2.22;;;21.00;54.90;;;;;;5138767;27;20053;-46
2021/12/09 04:18:42;;;;;;;3.50;2.25;;;21.00;55.00;;;;;;5146533;27;20436;-46
2021/12/09 04:21:08;;;;;;;3.40;2.08;;;21.10;55.00;;;;;;5164633;27;20026;-44
2021/12/09 04:23:35;;;;;;;3.85;2.13;;;21.20;55.00;;;;;;5167047;27;20143;-47
2021/12/09 04:26:01;;;;;;;2.00;1.70;;;21.20;54.90;;;;;;5169779;27;20036;-46
2021/12/09 04:28:27;;;;;;;2.78;1.73;;;21.20;54.70;;;;;;5178470;27;20065;-44
2021/12/09 04:30:53;;;;;;;2.40;1.63;;;21.10;54.60;;;;;;5166693;27;20046;-46
2021/12/09 04:33:19;;;;;;;2.55;1.73;;;21.00;54.60;;;;;;5165906;27;20033;-44
2021/12/09 04:35:45;;;;;;;2.72;1.80;;;21.10;54.90;;;;;;5166493;27;20019;-45
2021/12/09 04:38:12;;;;;;;1.98;1.52;;;21.20;54.90;;;;;;5167120;27;20031;-46
2021/12/09 04:40:38;;;;;;;1.63;1.50;;;21.20;54.90;;;;;;5166128;27;20113;-46
2021/12/09 04:43:04;;;;;;;2.83;1.63;;;21.20;54.80;;;;;;5166514;27;20022;-44
2021/12/09 04:45:33;;;;;;;2.70;1.90;;;21.20;55.20;;;;;;5166086;27;20022;-45
2021/12/09 04:47:59;;;;;;;2.47;1.85;;;21.20;54.50;;;;;;5166865;27;20474;-44
2021/12/09 04:50:25;;;;;;;2.22;1.55;;;21.10;54.50;;;;;;5164538;27;20030;-44
2021/12/09 04:52:51;;;;;;;2.05;1.60;;;21.20;54.70;;;;;;5165702;27;20041;-45
2021/12/09 04:55:18;;;;;;;2.75;2.00;;;21.20;54.70;;;;;;5166183;27;20027;-45
2021/12/09 04:57:44;;;;;;;2.13;1.48;;;21.30;54.70;;;;;;5166642;27;20497;-45
2021/12/09 05:00:13;;;;;;;2.17;1.52;;;21.30;54.50;;;;;;5124349;27;20042;-44
2021/12/09 05:05:11;;;;;;;1.75;1.50;;;21.20;54.30;;;;;;5041541;28;20022;-45
2021/12/09 05:07:37;;;;;;;1.80;1.40;;;21.10;54.50;;;;;;5055946;28;20037;-44
2021/12/09 05:10:04;;;;;;;2.90;1.35;;;21.20;54.60;;;;;;5060554;28;20029;-46
2021/12/09 05:12:30;;;;;;;1.48;1.33;;;21.20;54.60;;;;;;5061224;27;20041;-46
2021/12/09 05:14:56;;;;;;;1.70;1.33;;;21.30;54.60;;;;;;5060689;27;20043;-45
2021/12/09 05:17:22;;;;;;;2.13;1.35;;;21.30;54.40;;;;;;5058117;28;20032;-46
2021/12/09 05:19:48;;;;;;;1.50;1.25;;;21.20;54.20;;;;;;5058185;28;20044;-46
2021/12/09 05:22:15;;;;;;;2.10;1.30;;;21.10;54.30;;;;;;5060001;28;20049;-46
2021/12/09 05:24:41;;;;;;;2.73;1.73;;;21.10;54.40;;;;;;5060464;28;20032;-44
2021/12/09 05:27:09;;;;;;;1.60;1.25;;;21.20;54.40;;;;;;5128975;27;20036;-45
2021/12/09 05:29:43;;;;;;;1.60;1.30;;;21.30;54.40;;;;;;5060802;28;20035;-44
2021/12/09 05:32:13;;;;;;;1.95;1.38;;;21.30;54.30;;;;;;5059161;28;20047;-45
2021/12/09 05:34:44;;;;;;;1.35;1.17;;;21.20;54.00;;;;;;5040878;28;20030;-46
2021/12/09 05:37:21;;;;;;;1.52;1.20;;;21.20;54.00;;;;;;5040426;28;20037;-46
2021/12/09 05:39:47;;;;;;;1.52;1.27;;;21.10;54.20;;;;;;5047067;28;20024;-45
2021/12/09 05:42:14;;;;;;;1.40;1.17;;;21.20;54.20;;;;;;5040654;28;20044;-46
2021/12/09 05:44:40;;;;;;;1.95;1.40;;;21.30;54.30;;;;;;5041020;28;20022;-44
2021/12/09 05:47:07;;;;;;;2.92;1.30;;;21.30;54.20;;;;;;5040519;28;20126;-46
2021/12/09 05:49:35;;;;;;;1.70;1.43;;;21.30;54.00;;;;;;5056829;28;20109;-46
2021/12/09 05:52:01;;;;;;;1.40;1.13;;;21.20;53.80;;;;;;5060385;28;20076;-44
2021/12/09 05:54:27;;;;;;;2.13;1.30;;;21.10;54.00;;;;;;5060641;27;20077;-46
2021/12/09 05:56:53;;;;;;;1.33;1.23;;;21.20;54.10;;;;;;5049158;27;20431;-47
2021/12/09 05:59:19;;;;;;;1.45;1.30;;;21.20;54.00;;;;;;5059389;28;20049;-45
2021/12/09 06:01:45;;;;;;;1.38;1.20;;;21.30;54.00;;;;;;5046182;28;20044;-44
2021/12/09 06:04:12;;;;;;;1.60;1.23;;;21.30;54.00;;;;;;5060181;28;20057;-47
2021/12/09 06:06:38;;;;;;;1.67;1.25;;;21.30;53.80;;;;;;5059915;27;20032;-46
2021/12/09 06:09:05;;;;;;;2.27;1.37;;;21.20;53.60;;;;;;5060249;27;20025;-44
2021/12/09 06:11:31;;;;;;;1.48;1.33;;;21.20;53.80;;;;;;5072553;28;20048;-44
2021/12/09 06:13:57;;;;;;;1.80;1.35;;;21.20;53.90;;;;;;5065578;28;20034;-46
2021/12/09 06:16:24;;;;;;;1.45;1.10;;;21.30;53.90;;;;;;5050733;28;20039;-46
2021/12/09 06:18:51;;;;;;;;;;;21.30;53.80;;;;;;5060632;28;20036;-46
2021/12/09 06:21:18;;;;;;;1.50;1.10;;;21.30;53.80;;;;;;5057207;27;20644;-45
2021/12/09 06:23:45;;;;;;;1.52;1.17;;;21.30;53.60;;;;;;5064410;28;20051;-46
2021/12/09 06:26:11;;;;;;;1.75;1.20;;;21.20;53.60;;;;;;5059497;28;20040;-45
2021/12/09 06:28:38;;;;;;;1.40;1.15;;;21.20;53.70;;;;;;5059983;27;20104;-44
2021/12/09 06:31:05;;;;;;;1.30;1.08;;;21.20;53.90;;;;;;5059230;28;20060;-49
2021/12/09 06:33:32;;;;;;;1.48;1.17;;;21.30;53.90;;;;;;5059745;28;20028;-45
2021/12/09 06:35:58;;;;;;;1.67;1.23;;;21.30;53.90;;;;;;5059212;28;20037;-44
2021/12/09 06:38:24;;;;;;;1.85;1.35;;;21.30;53.80;;;;;;5048376;28;20041;-47
2021/12/09 06:40:50;;;;;;;1.65;1.23;;;21.30;53.70;;;;;;5052684;28;20067;-46
2021/12/09 06:43:17;;;;;;;1.50;1.15;;;21.20;53.70;;;;;;5039675;28;20063;-46
2021/12/09 06:45:43;;;;;;;1.38;1.08;;;21.20;54.50;;;;;;5039465;28;20753;-45
2021/12/09 06:48:10;;;;;;;1.40;1.30;;;21.30;54.00;;;;;;5040264;28;20044;-44
2021/12/09 06:50:36;;;;;;;1.20;1.10;;;21.40;54.00;;;;;;5056704;28;20270;-44
2021/12/09 06:53:02;;;;;;;1.73;1.48;;;21.40;54.00;;;;;;5059485;27;20290;-46
2021/12/09 06:55:29;;;;;;;1.65;1.20;;;21.30;53.70;;;;;;5045758;28;20036;-45
2021/12/09 06:57:55;;;;;;;2.03;1.40;;;21.30;53.70;;;;;;5039955;28;20075;-44
2021/12/09 07:00:26;;;;;;;2.05;1.30;;;21.20;53.80;;;;;;5053902;27;20109;-46
2021/12/09 07:02:52;;;;;;;1.55;1.20;;;21.20;53.90;;;;;;5039544;28;20040;-44
2021/12/09 07:05:20;;;;;;;1.80;1.27;;;21.30;53.90;;;;;;5043609;28;20024;-45
2021/12/09 07:07:46;;;;;;;1.52;1.25;;;21.30;53.80;;;;;;5039851;28;20038;-44
2021/12/09 07:10:13;;;;;;;1.08;0.90;;;21.40;53.90;;;;;;5055149;28;20059;-45
2021/12/09 07:12:39;;;;;;;1.40;1.30;;;21.30;53.60;;;;;;5059530;27;20392;-45
2021/12/09 07:15:07;;;;;;;1.70;1.40;;;21.20;53.70;;;;;;5049176;28;20033;-45
2021/12/09 07:17:33;;;;;;;2.47;1.10;;;21.20;53.80;;;;;;5058590;28;20037;-45
2021/12/09 07:19:59;;;;;;;1.83;1.15;;;21.30;53.90;;;;;;5050505;28;20026;-44
2021/12/09 07:22:26;;;;;;;1.40;1.10;;;21.30;53.90;;;;;;5049897;28;20037;-45
2021/12/09 07:24:52;;;;;;;2.20;1.25;;;21.40;54.00;;;;;;5059073;27;20029;-46
2021/12/09 07:27:18;;;;;;;1.40;1.10;;;21.40;53.70;;;;;;5042699;28;20034;-46
2021/12/09 07:29:44;;;;;;;1.50;1.20;;;21.30;53.60;;;;;;5058803;28;20059;-46
2021/12/09 07:32:10;;;;;;;1.85;1.40;;;21.20;53.70;;;;;;5059023;28;20670;-44
2021/12/09 07:34:37;;;;;;;1.50;0.93;;;21.20;53.90;;;;;;5058834;28;20039;-46
2021/12/09 07:37:04;;;;;;;1.10;1.00;;;21.30;53.90;;;;;;5058837;28;20025;-46
2021/12/09 07:39:31;;;;;;;1.25;1.00;;;21.40;54.00;;;;;;5056645;27;20046;-44
2021/12/09 07:41:59;;;;;;;1.42;1.08;;;21.40;54.00;;;;;;5055432;27;20033;-45
2021/12/09 07:44:27;;;;;;;1.20;1.08;;;21.40;53.70;;;;;;5038696;28;20041;-44
2021/12/09 07:46:54;;;;;;;1.60;1.20;;;21.30;53.60;;;;;;5038993;28;20033;-44
2021/12/09 07:49:21;;;;;;;1.38;1.05;;;21.20;53.70;;;;;;5038880;28;20055;-44
2021/12/09 07:51:47;;;;;;;1.20;1.10;;;21.20;53.80;;;;;;5038541;28;20045;-44
2021/12/09 07:54:14;;;;;;;1.80;1.33;;;21.30;53.80;;;;;;5040265;28;20025;-46
2021/12/09 07:56:40;;;;;;;1.50;1.00;;;21.40;53.80;;;;;;5053233;27;20029;-44
2021/12/09 07:59:06;;;;;;;1.17;1.08;;;21.40;53.70;;;;;;5055433;27;20028;-46
2021/12/09 08:01:32;;;;;;;1.63;0.93;;;21.30;53.50;;;;;;5149834;27;20485;-45
2021/12/09 08:03:59;;;;;;;1.42;1.13;;;21.20;53.50;;;;;;5161898;27;20057;-44
2021/12/09 08:06:25;;;;;;;1.20;1.00;;;21.20;53.80;;;;;;5161646;27;20027;-44
2021/12/09 08:08:51;;;;;;;1.40;1.30;;;21.30;53.80;;;;;;5161631;27;20027;-45
2021/12/09 08:11:17;;;;;;;1.77;1.25;;;21.30;53.70;;;;;;5161146;27;20027;-45
2021/12/09 08:13:43;;;;;;;1.52;1.23;;;21.40;53.80;;;;;;5160878;27;20048;-42
2021/12/09 08:16:10;;;;;;;2.28;1.10;;;21.40;53.50;;;;;;5142234;27;20019;-44
2021/12/09 08:18:53;;;;;;;0.98;0.85;;;21.30;53.40;;;;;;5141679;27;20031;-46
2021/12/09 08:21:20;;;;;;;1.40;1.13;;;21.20;53.50;;;;;;5144596;27;20037;-44
2021/12/09 08:23:47;;;;;;;1.38;0.98;;;21.20;53.60;;;;;;5162445;27;20105;-45
2021/12/09 08:26:13;;;;;;;0.77;0.75;;;21.30;53.60;;;;;;5160840;27;20118;-44
2021/12/09 08:28:39;;;;;;;1.42;1.10;;;21.40;53.70;;;;;;5165966;27;20083;-45
2021/12/09 08:31:05;;;;;;;0.85;0.82;;;21.40;53.60;;;;;;5162578;27;20506;-44
2021/12/09 08:33:31;;;;;;;1.38;1.20;;;21.40;53.40;;;;;;5166371;27;20033;-45
2021/12/09 08:35:57;;;;;;;1.17;0.75;;;21.30;53.40;;;;;;5164402;27;20019;-47
2021/12/09 08:38:24;;;;;;;1.13;0.90;;;21.20;53.50;;;;;;5164772;27;20357;-46
2021/12/09 08:40:50;;;;;;;1.25;1.00;;;21.30;53.60;;;;;;5164239;27;20057;-44
2021/12/09 08:43:16;;;;;;;1.77;0.90;;;21.30;53.60;;;;;;5165172;27;20515;-46
2021/12/09 08:45:42;;;;;;;1.02;0.80;;;21.40;53.50;;;;;;5164094;27;20027;-44
2021/12/09 08:48:09;;;;;;;0.80;0.80;;;21.40;54.00;;;;;;5163227;27;20038;-45
2021/12/09 08:50:37;;;;;;;1.27;1.17;;;21.30;53.30;;;;;;5162720;27;20023;-45
2021/12/09 08:53:07;;;;;;;1.35;1.20;;;21.20;53.40;;;;;;5163502;27;20046;-46
2021/12/09 08:55:33;;;;;;;1.75;0.80;;;21.30;53.50;;;;;;5162638;27;20073;-44
2021/12/09 08:58:00;;;;;;;1.45;1.00;;;21.30;53.50;;;;;;5164612;27;20030;-46
2021/12/09 09:00:28;;;;;;;1.30;1.05;;;21.40;53.40;;;;;;5144362;27;20471;-45
2021/12/09 09:02:54;;;;;;;1.27;1.02;;;21.40;53.50;;;;;;5163874;27;20091;-46
2021/12/09 09:05:21;;;;;;;1.40;1.20;;;21.40;53.20;;;;;;5163560;27;20030;-46
2021/12/09 09:07:48;;;;;;;1.83;1.20;;;21.30;53.20;;;;;;5164543;27;20129;-44
2021/12/09 09:10:17;;;;;;;0.93;0.82;;;21.20;53.30;;;;;;5163430;27;20091;-44
2021/12/09 09:12:43;;;;;;;1.23;1.00;;;21.30;53.50;;;;;;5163963;27;20047;-44
2021/12/09 09:15:11;;;;;;;1.27;1.05;;;21.30;53.40;;;;;;5163735;27;20023;-45
2021/12/09 09:17:38;;;;;;;0.98;0.82;;;21.40;53.40;;;;;;5164187;27;20054;-44
2021/12/09 09:20:05;;;;;;;1.05;0.90;;;21.40;53.20;;;;;;5164512;27;20041;-44
2021/12/09 09:22:31;;;;;;;1.27;0.98;;;21.30;53.10;;;;;;5145724;27;20684;-45
2021/12/09 09:24:57;;;;;;;0.80;0.68;;;21.20;53.20;;;;;;5145210;27;20031;-49
2021/12/09 09:27:24;;;;;;;1.70;0.93;;;21.20;53.30;;;;;;5144930;27;20041;-46
2021/12/09 09:29:50;;;;;;;1.60;1.05;;;21.30;53.30;;;;;;5156640;27;20044;-46
2021/12/09 09:32:16;;;;;;;1.05;0.80;;;21.40;53.30;;;;;;5165410;27;20049;-44
2021/12/09 09:34:42;;;;;;;1.05;0.90;;;21.40;53.20;;;;;;5165600;27;20026;-46
2021/12/09 09:37:08;;;;;;;1.40;1.00;;;21.40;52.90;;;;;;5157220;27;20034;-43
2021/12/09 09:39:35;;;;;;;1.13;0.80;;;21.20;52.90;;;;;;5160009;27;20019;-44
2021/12/09 09:42:19;;;;;;;1.00;0.80;;;21.20;53.20;;;;;;5147029;27;20027;-44
2021/12/09 09:44:55;;;;;;;1.00;0.88;;;21.30;53.20;;;;;;5144748;27;20031;-44
2021/12/09 09:47:26;;;;;;;1.00;0.90;;;21.30;53.20;;;;;;5144622;27;20047;-46
2021/12/09 09:49:52;;;;;;;1.60;0.88;;;21.40;53.20;;;;;;5152312;27;20042;-46
2021/12/09 09:52:18;;;;;;;1.33;0.95;;;21.40;53.10;;;;;;5165406;27;20034;-47
2021/12/09 09:54:44;;;;;;;1.67;1.00;;;21.30;52.80;;;;;;5158406;27;20033;-46
2021/12/09 09:57:11;;;;;;;0.82;0.82;;;21.20;52.90;;;;;;5144734;27;20087;-44
2021/12/09 09:59:40;;;;;;;0.90;0.80;;;21.20;53.10;;;;;;5153942;27;20023;-45
2021/12/09 10:02:06;;;;;;;2.10;1.00;;;21.20;53.20;;;;;;5164928;27;20026;-45
2021/12/09 10:04:47;;;;;;;1.20;0.95;;;21.30;53.20;;;;;;5165331;27;20018;-45
2021/12/09 10:07:14;;;;;;;1.40;0.98;;;21.40;53.20;;;;;;5164872;27;20037;-47
2021/12/09 10:09:41;;;;;;;1.30;1.00;;;21.40;53.00;;;;;;5165030;27;20026;-44
2021/12/09 10:12:07;;;;;;;0.70;0.70;;;21.30;52.90;;;;;;5164947;27;20077;-47
2021/12/09 10:14:34;;;;;;;1.50;0.83;;;21.20;53.00;;;;;;5165076;27;20142;-47
2021/12/09 10:17:14;;;;;;;1.38;1.00;;;21.20;53.10;;;;;;5167147;27;20305;-46
2021/12/09 10:19:49;;;;;;;0.98;0.88;;;21.30;53.00;;;;;;5158925;27;20042;-44
2021/12/09 10:22:20;;;;;;;1.77;0.98;;;21.40;53.10;;;;;;5167199;27;20010;-44
2021/12/09 10:24:47;;;;;;;1.05;0.95;;;21.40;53.00;;;;;;5164758;27;20030;-46
2021/12/09 10:27:24;;;;;;;;;;;21.30;52.80;;;;;;5162512;27;20046;-47
2021/12/09 10:29:55;;;;;;;1.55;1.00;;;21.20;52.90;;;;;;5162693;27;19913;-44
2021/12/09 10:32:28;;;;;;;0.70;0.68;;;21.20;53.00;;;;;;5146560;27;20038;-45
2021/12/09 10:34:54;;;;;;;1.58;1.00;;;21.30;53.10;;;;;;5164462;27;20048;-44
2021/12/09 10:37:30;;;;;;;1.17;0.88;;;21.30;53.10;;;;;;5161594;27;20451;-45
2021/12/09 10:40:12;;;;;;;0.82;0.60;;;21.40;53.10;;;;;;5157911;27;20559;-45
2021/12/09 10:42:43;;;;;;;1.90;1.00;;;21.30;52.80;;;;;;5160646;27;20117;-45
2021/12/09 10:45:14;;;;;;;1.00;0.77;;;21.30;52.80;;;;;;5144094;27;20455;-45
2021/12/09 10:50:39;;;;;;;1.23;0.80;;;21.20;53.00;;;;;;5163195;27;20031;-44
2021/12/09 10:55:57;;;;;;;0.93;0.85;;;21.40;53.10;;;;;;5148794;27;20027;-45
2021/12/09 10:58:26;;;;;;;;;;;21.40;52.90;;;;;;5144921;27;20043;-44
2021/12/09 11:01:06;;;;;;;0.88;0.80;;;21.40;52.70;;;;;;5099805;27;19959;-45
2021/12/09 11:03:44;;;;;;;0.88;0.80;;;21.30;52.70;;;;;;5055117;27;20796;-46
2021/12/09 11:06:12;;;;;;;1.33;0.70;;;21.20;52.80;;;;;;5119481;27;20030;-44
2021/12/09 11:08:45;;;;;;;1.35;1.00;;;21.30;52.90;;;;;;5052543;28;20046;-45
2021/12/09 11:11:15;;;;;;;1.00;0.80;;;21.40;52.90;;;;;;5059265;27;20037;-44
2021/12/09 11:13:47;;;;;;;1.27;0.90;;;21.40;52.90;;;;;;5059332;27;20021;-45
2021/12/09 11:16:22;;;;;;;0.93;0.80;;;21.40;52.80;;;;;;5053251;28;20033;-46
2021/12/09 11:18:49;;;;;;;1.35;0.93;;;21.30;52.60;;;;;;5059233;28;20037;-46
2021/12/09 11:21:31;;;;;;;1.50;0.90;;;21.20;52.70;;;;;;5057377;28;20033;-45
2021/12/09 11:24:04;;;;;;;1.08;0.90;;;21.20;52.90;;;;;;5059338;28;20022;-44
2021/12/09 11:29:38;;;;;;;1.15;0.90;;;21.40;52.80;;;;;;5059122;28;20064;-46
2021/12/09 11:32:41;;;;;;;1.10;0.90;;;21.40;52.70;;;;;;5058779;28;20045;-45
2021/12/09 11:35:24;;;;;;;0.88;0.77;;;21.30;52.60;;;;;;5043384;27;20022;-45
2021/12/09 11:38:02;;;;;;;1.10;0.80;;;21.20;52.60;;;;;;5047635;28;20056;-46
2021/12/09 11:40:42;;;;;;;0.70;0.70;;;21.20;52.80;;;;;;5057089;28;20036;-46
2021/12/09 11:43:10;;;;;;;1.00;0.90;;;21.30;52.80;;;;;;5058862;28;20036;-46
2021/12/09 11:45:39;;;;;;;1.17;0.90;;;21.40;52.80;;;;;;5059080;28;20018;-46
2021/12/09 11:48:06;;;;;;;0.70;0.70;;;21.40;52.60;;;;;;5058704;28;20040;-46
2021/12/09 11:50:34;;;;;;;1.05;0.95;;;21.30;52.50;;;;;;5046205;27;20026;-46
2021/12/09 11:53:02;;;;;;;1.05;0.82;;;21.20;52.50;;;;;;5038993;28;20059;-45
2021/12/09 11:56:22;;;;;;;0.93;0.80;;;21.20;52.50;;;;;;5057482;28;20164;-46
2021/12/09 11:58:23;;;;;;;1.10;0.75;;;21.30;52.80;;;;;;5071483;27;20132;-44
2021/12/09 12:07:29;;;;;;;1.00;0.70;;;21.40;52.50;;;;;;5167487;27;20042;-44
2021/12/09 12:18:18;;;;;;;1.27;0.98;;;21.40;52.70;;;;;;5155905;27;20043;-44
2021/12/09 12:23:53;;;;;;;1.00;0.82;;;21.30;52.40;;;;;;5137594;27;20038;-46
2021/12/09 12:37:42;;;;;;;1.02;0.82;;;21.40;52.40;;;;;;5166695;27;20031;-45
2021/12/09 12:40:10;;;;;;;1.30;0.90;;;21.30;52.30;;;;;;5174634;27;20096;-46
2021/12/09 12:42:51;;;;;;;1.15;0.95;;;21.20;52.30;;;;;;5166503;27;20048;-48
2021/12/09 12:45:34;;;;;;;1.15;0.93;;;21.30;52.60;;;;;;5156374;27;20042;-48
2021/12/09 12:48:29;;;;;;;1.38;0.80;;;21.30;52.40;;;;;;5165508;27;20019;-44
2021/12/09 12:51:13;;;;;;;0.98;0.82;;;21.40;52.50;;;;;;5164541;27;20026;-45
2021/12/09 12:53:43;;;;;;;1.05;0.88;;;21.40;52.30;;;;;;5148855;27;20059;-44
2021/12/09 12:56:12;;;;;;;1.13;0.77;;;21.30;52.20;;;;;;5149918;27;20094;-47
2021/12/09 12:58:39;;;;;;;1.30;1.00;;;21.20;52.30;;;;;;5138602;27;20721;-45
2021/12/09 13:01:16;;;;;;;1.17;0.90;;;21.30;52.50;;;;;;5077218;27;20056;-44
2021/12/09 13:03:47;;;;;;;0.82;0.80;;;21.30;52.40;;;;;;5044188;28;20066;-44
2021/12/09 13:06:49;;;;;;;1.15;0.93;;;21.40;52.40;;;;;;5050938;28;20098;-46
2021/12/09 13:12:04;;;;;;;1.23;0.90;;;21.40;52.20;;;;;;5117208;27;20037;-45
2021/12/09 13:14:34;;;;;;;1.00;0.90;;;21.30;52.20;;;;;;5060356;28;20028;-47
2021/12/09 13:22:10;;;;;;;1.77;1.02;;;21.40;52.40;;;;;;5060367;28;20136;-46
2021/12/09 13:25:13;;;;;;;0.80;0.80;;;21.40;52.30;;;;;;5058653;28;20029;-47
2021/12/09 13:31:00;;;;;;;1.20;0.90;;;21.30;52.00;;;;;;5079827;27;20033;-45
2021/12/09 13:36:19;;;;;;;0.70;0.60;;;21.30;52.40;;;;;;5044203;28;20500;-45
2021/12/09 13:49:58;;;;;;;1.30;0.80;;;21.30;52.40;;;;;;5061382;27;20025;-46
2021/12/09 13:55:25;;;;;;;1.35;1.10;;;21.40;52.40;;;;;;5057813;28;20709;-48
2021/12/09 13:57:57;;;;;;;1.00;0.90;;;21.40;52.40;;;;;;5057109;28;20032;-46
2021/12/09 14:00:26;;;;;;;1.42;0.93;;;21.40;52.20;;;;;;5099351;27;20043;-46